Impacts TAF Board
For situational awareness. Not to be used for flight planning purposes.
IDs:

KMGM - Montgomery/Dannely F, AL, US

Issued at 1131 UTC 15 Oct 2018
Updated at 1524 UTC 15 Oct 2018
Potential Impact None Slight Moderate High
Time<<16/04Z 16/05Z 16/06Z 16/07Z 16/08Z 16/09Z 16/10Z 16/11Z 16/12Z 16/13Z 16/14Z 16/15Z 16/16Z>>
Type PRVL PRVL PRVL PRVL PRVL PRVL PRVL PRVL
VIS >6 >6 >6 >6 >6 6 6 6
CIG 100 100 100 100 100 15 15 15
Cover BKN BKN BKN BKN BKN OVC OVC OVC
FltCat VFR VFR VFR VFR VFR MVFR MVFR MVFR
WX -- -- -- -- -- BR BR BR
WDir VRB VRB VRB VRB VRB 330 330 330
WSpd 2 2 2 2 2 2 2 2
WGst -- -- -- -- -- -- -- --
Raw TAF
KMGM 151131Z 1512/1612 12005KT P6SM BKN035
  TEMPO 1512/1515 BKN015
  FM151900 24006KT P6SM BKN050
  FM160000 VRB02KT P6SM BKN100
  FM160900 33002KT 6SM BR OVC015


METAR Board
Radar Display
Forecast Discussion
For situational awareness. Not to be used for flight planning purposes.